Date,TemperatureHighF,TemperatureAvgF,TemperatureLowF,DewpointHighF,DewpointAvgF,DewpointLowF,HumidityHigh,HumidityAvg,HumidityLow,PressureMaxIn,PressureMinIn,WindSpeedMaxMPH,WindSpeedAvgMPH,GustSpeedMaxMPH,PrecipitationSumIn
2013-5-1,84,67,54,67,55,-100,93,74,49,30.06,29.76,11,-39,20,0.00
2013-5-2,53,41,38,47,29,-100,91,76,73,30.41,30.07,21,-54,26,0.03
2013-5-3,64,46,30,36,25,-100,92,56,24,30.41,30.06,20,-39,25,0.00
2013-5-4,66,49,32,40,26,-100,92,52,18,30.09,29.95,18,-37,24,0.00
2013-5-5,65,52,44,48,37,-100,92,65,51,30.19,30.08,12,-37,16,0.00
2013-5-6,76,57,40,53,42,-100,97,67,42,30.15,30.01,8,-40,14,0.00
2013-5-7,84,66,49,55,45,-100,94,57,30,30.09,29.91,7,-41,13,0.00
2013-5-8,86,69,58,64,47,-100,88,55,25,29.96,29.81,12,-48,23,0.20
2013-5-9,76,64,61,67,52,-100,93,75,61,29.96,29.84,11,-61,15,0.00
2013-5-10,76,64,59,63,53,-100,100,75,53,30.08,29.91,12,-39,14,0.00
2013-5-11,81,62,48,60,46,-100,97,68,34,30.22,30.08,14,-39,20,0.09
2013-5-12,79,60,43,49,34,-100,93,48,20,30.27,30.12,6,-51,14,0.01
2013-5-13,92,71,52,53,40,-100,76,37,20,30.18,30.02,9,-39,18,0.00
2013-5-14,89,73,63,59,44,-100,67,41,26,30.09,29.91,11,-58,18,0.00
2013-5-15,76,65,59,68,55,-100,97,79,55,29.96,29.73,10,-47,19,1.12
2013-5-16,68,56,60,66,41,-100,98,82,92,29.83,29.73,6,-124,14,0.27
2013-5-17,86,67,64,76,55,-100,99,82,70,29.86,29.76,8,-82,12,0.00
2013-5-18,90,78,70,75,66,-100,97,75,57,29.85,29.67,23,-27,23,0.00
2013-5-19,88,77,71,73,63,-100,81,67,60,29.76,29.54,18,-35,28,0.00
2013-5-20,88,74,63,74,64,-100,94,76,61,29.74,29.59,17,-16,25,1.77
2013-5-21,68,30,57,64,-24,-100,98,42,84,29.88,29.71,9,-531,30,0.85
2013-5-22,84,68,48,64,49,-100,100,62,41,29.96,29.85,7,-71,12,0.01
2013-5-23,85,66,58,70,50,-100,97,72,54,30.09,29.90,18,-82,33,0.37
2013-5-24,82,69,62,74,59,-100,95,81,72,30.14,30.04,9,-50,15,0.28
2013-5-25,80,65,64,72,57,-100,97,86,72,30.17,29.99,16,-51,17,0.73
2013-5-26,84,72,65,73,61,-100,97,79,68,30.06,29.88,14,-48,20,0.00
2013-5-27,82,73,70,72,64,-100,91,79,69,29.93,29.73,15,-26,25,0.00
2013-5-28,80,73,71,70,59,-100,87,71,66,29.83,29.65,25,-46,25,0.00
2013-5-29,79,70,63,72,62,-100,97,81,76,29.79,29.63,18,-36,33,0.68
2013-5-30,86,78,69,75,71,66,94,81,66,29.74,29.60,13,6,23,0.01
2013-5-31,89,77,74,77,64,-100,88,72,66,29.76,29.56,13,-47,24,0.00